Time;durP1;ratioP1;P1;durP2;ratioP2;P2;SDS_P1;SDS_P2;PMS_P1;PMS_P2;Temp;Humidity;BMP_temperature;BMP_pressure;BME280_temperature;BME280_humidity;BME280_pressure;Samples;Min_cycle;Max_cycle;Signal;HPM_P1;HPM_P2
2022/01/03 00:00:38;;;;;;;47.85;30.58;;;281.90;1971.20;;;;;;5033752;28;20033;-62
2022/01/03 00:03:08;;;;;;;52.13;31.08;;;281.80;1971.20;;;;;;5033438;28;20030;-61
2022/01/03 00:05:33;;;;;;;50.47;31.58;;;281.90;1971.20;;;;;;5033559;28;20026;-62
2022/01/03 00:07:59;;;;;;;47.10;31.27;;;281.90;1971.20;;;;;;5033425;28;20026;-62
2022/01/03 00:10:25;;;;;;;54.83;33.05;;;281.90;1971.20;;;;;;5033676;28;20028;-61
2022/01/03 00:12:51;;;;;;;53.83;32.60;;;281.90;1971.20;;;;;;5033569;28;20030;-61
2022/01/03 00:15:18;;;;;;;54.65;34.55;;;281.90;1971.20;;;;;;5033585;28;20028;-62
2022/01/03 00:17:46;;;;;;;52.55;32.67;;;281.80;1945.60;;;;;;5033420;28;20025;-61
2022/01/03 00:20:13;;;;;;;50.58;31.92;;;281.80;1945.60;;;;;;5033514;28;20101;-61
2022/01/03 00:23:02;;;;;;;53.58;34.25;;;281.80;1945.60;;;;;;5033406;28;20438;-62
2022/01/03 00:25:29;;;;;;;47.85;31.15;;;281.70;1945.60;;;;;;5033533;28;20029;-62
2022/01/03 00:28:14;;;;;;;47.53;30.27;;;281.70;1945.60;;;;;;5033267;28;20574;-61
2022/01/03 00:30:42;;;;;;;45.35;30.58;;;281.60;1945.60;;;;;;5034451;28;20052;-61
2022/01/03 00:33:08;;;;;;;47.33;29.80;;;256.90;1920.00;;;;;;5037155;28;20360;-62
2022/01/03 00:35:36;;;;;;;46.08;30.10;;;256.90;1945.60;;;;;;5037447;28;20460;-61
2022/01/03 00:38:03;;;;;;;46.95;30.73;;;281.60;1945.60;;;;;;5037011;28;20030;-61
2022/01/03 00:40:29;;;;;;;45.63;29.58;;;256.90;1920.00;;;;;;5037109;28;20045;-62
2022/01/03 00:42:55;;;;;;;44.33;29.73;;;256.90;1920.00;;;;;;5036880;28;20383;-61
2022/01/03 00:45:21;;;;;;;50.10;30.70;;;256.90;1894.40;;;;;;5037230;28;20026;-61
2022/01/03 00:47:48;;;;;;;46.42;29.63;;;256.80;1920.00;;;;;;5037155;28;20030;-61
2022/01/03 00:50:18;;;;;;;43.17;29.35;;;256.70;1920.00;;;;;;5037316;28;20168;-61
2022/01/03 00:52:45;;;;;;;41.38;29.00;;;256.70;1894.40;;;;;;5036808;28;20104;-61
2022/01/03 00:55:11;;;;;;;47.78;31.90;;;256.70;1945.60;;;;;;5037553;28;20038;-62
2022/01/03 00:57:59;;;;;;;55.45;34.17;;;256.70;1920.00;;;;;;5036714;28;20495;-61
2022/01/03 01:00:26;;;;;;;58.58;36.75;;;256.70;1920.00;;;;;;5036793;28;20112;-61
2022/01/03 01:03:05;;;;;;;60.17;36.85;;;256.50;1920.00;;;;;;5036638;28;20163;-61
2022/01/03 01:05:31;;;;;;;59.60;38.22;;;256.50;1920.00;;;;;;5036768;28;20037;-62
2022/01/03 01:07:58;;;;;;;57.72;37.80;;;256.40;1920.00;;;;;;5036548;28;20028;-62
2022/01/03 01:10:32;;;;;;;57.58;36.35;;;256.40;1945.60;;;;;;5036814;28;20500;-62
2022/01/03 01:12:58;;;;;;;50.22;33.60;;;256.40;1920.00;;;;;;5036692;28;20025;-61
2022/01/03 01:15:27;;;;;;;51.67;32.95;;;256.40;1920.00;;;;;;5036627;28;20041;-62
2022/01/03 01:17:54;;;;;;;50.17;32.45;;;256.40;1920.00;;;;;;5035934;28;20034;-61
2022/01/03 01:20:21;;;;;;;58.97;37.28;;;256.40;1894.40;;;;;;5036731;28;20032;-62
2022/01/03 01:22:47;;;;;;;60.10;38.13;;;256.40;1920.00;;;;;;5036142;28;20517;-62
2022/01/03 01:27:50;;;;;;;57.22;35.83;;;256.30;1894.40;;;;;;5036490;28;20026;-62
2022/01/03 01:30:22;;;;;;;51.83;33.60;;;256.30;1920.00;;;;;;5036147;28;20036;-62
2022/01/03 01:33:03;;;;;;;52.67;33.65;;;256.20;1920.00;;;;;;5036082;28;20038;-62
2022/01/03 01:35:50;;;;;;;53.72;33.05;;;256.20;1894.40;;;;;;5036233;28;20399;-62
2022/01/03 01:38:20;;;;;;;48.22;32.55;;;256.10;1945.60;;;;;;5036046;28;20416;-61
2022/01/03 01:40:52;;;;;;;57.35;37.10;;;256.10;1894.40;;;;;;5035933;28;20054;-62
2022/01/03 01:43:39;;;;;;;58.90;36.67;;;256.00;1920.00;;;;;;5035243;28;20033;-62
2022/01/03 01:46:17;;;;;;;55.03;36.20;;;256.00;1945.60;;;;;;5035859;28;20079;-61
2022/01/03 01:48:45;;;;;;;53.08;34.42;;;256.00;1920.00;;;;;;5035788;28;20025;-61
2022/01/03 01:51:13;;;;;;;56.42;34.38;;;256.10;1920.00;;;;;;5035740;28;20104;-61
2022/01/03 01:53:48;;;;;;;67.93;41.05;;;256.00;1945.60;;;;;;5035932;28;20056;-61
2022/01/03 01:56:16;;;;;;;;;;;256.00;1920.00;;;;;;5036162;28;20482;-61
2022/01/03 01:59:09;;;;;;;106.28;52.55;;;256.00;1920.00;;;;;;5035797;28;20354;-61
2022/01/03 02:02:06;;;;;;;110.13;52.65;;;231.30;1920.00;;;;;;5035592;28;20100;-62
2022/01/03 02:05:13;;;;;;;89.03;45.45;;;231.30;1920.00;;;;;;5035491;28;20037;-61
2022/01/03 02:07:54;;;;;;;73.53;41.67;;;231.30;1945.60;;;;;;5035188;28;20033;-61
2022/01/03 02:10:27;;;;;;;63.00;36.60;;;231.30;1920.00;;;;;;5035528;28;20475;-61
2022/01/03 02:12:54;;;;;;;61.03;34.75;;;231.30;1945.60;;;;;;5035560;28;20057;-60
2022/01/03 02:15:20;;;;;;;55.05;31.35;;;256.00;1945.60;;;;;;5035562;28;20029;-61
2022/01/03 02:17:48;;;;;;;51.50;32.03;;;256.00;1945.60;;;;;;5035444;28;20464;-60
2022/01/03 02:20:21;;;;;;;52.53;30.75;;;256.00;1945.60;;;;;;5035391;28;20151;-60
2022/01/03 02:22:49;;;;;;;47.28;29.77;;;256.10;1945.60;;;;;;5035279;28;20041;-61
2022/01/03 02:25:17;;;;;;;41.00;27.05;;;256.20;1945.60;;;;;;5035489;28;20463;-63
2022/01/03 02:27:44;;;;;;;42.28;27.35;;;256.20;1945.60;;;;;;5035336;28;20029;-62
2022/01/03 02:30:16;;;;;;;42.67;26.33;;;256.20;1945.60;;;;;;5035271;28;20026;-63
2022/01/03 02:32:42;;;;;;;40.70;26.98;;;256.10;1971.20;;;;;;5035181;28;20025;-62
2022/01/03 02:35:09;;;;;;;47.05;27.52;;;256.10;1971.20;;;;;;5035133;28;20068;-63
2022/01/03 02:37:35;;;;;;;43.40;28.48;;;256.10;1945.60;;;;;;5035171;28;20083;-62
2022/01/03 02:40:02;;;;;;;43.13;26.45;;;256.20;1945.60;;;;;;5034820;28;20091;-62
2022/01/03 02:42:27;;;;;;;39.08;25.77;;;256.20;1971.20;;;;;;5035017;28;20064;-63
2022/01/03 02:45:12;;;;;;;51.53;30.52;;;256.30;1920.00;;;;;;5035012;28;20375;-63
2022/01/03 02:47:39;;;;;;;63.05;34.83;;;256.20;1945.60;;;;;;5034752;28;20030;-63
2022/01/03 02:50:07;;;;;;;63.75;37.50;;;256.10;1945.60;;;;;;5034655;28;20032;-61
2022/01/03 02:52:33;;;;;;;71.50;39.97;;;256.20;1920.00;;;;;;5034298;28;20045;-62
2022/01/03 02:55:00;;;;;;;75.75;41.50;;;256.10;1945.60;;;;;;5034825;28;20467;-63
2022/01/03 02:57:32;;;;;;;78.68;45.10;;;256.10;1945.60;;;;;;5034820;28;20124;-63
2022/01/03 02:59:58;;;;;;;74.47;40.72;;;256.10;1920.00;;;;;;5035014;28;20355;-63
2022/01/03 03:02:26;;;;;;;63.25;37.63;;;256.00;1945.60;;;;;;5032705;28;20480;-61
2022/01/03 03:04:54;;;;;;;56.83;32.97;;;256.10;1945.60;;;;;;5034946;28;20059;-61
2022/01/03 03:07:25;;;;;;;74.00;38.83;;;231.30;1920.00;;;;;;5034323;28;20079;-61
2022/01/03 03:09:51;;;;;;;86.20;45.40;;;231.30;1945.60;;;;;;5034203;28;20052;-61
2022/01/03 03:12:18;;;;;;;96.85;50.22;;;231.30;1920.00;;;;;;5034481;28;20046;-61
2022/01/03 03:14:44;;;;;;;115.65;57.97;;;231.20;1920.00;;;;;;5034437;28;20028;-62
2022/01/03 03:17:10;;;;;;;95.55;50.33;;;231.30;1945.60;;;;;;5032892;28;20022;-61
2022/01/03 03:19:54;;;;;;;85.32;44.35;;;231.30;1920.00;;;;;;5034232;28;20105;-61
2022/01/03 03:22:21;;;;;;;81.97;44.70;;;231.30;1920.00;;;;;;5034220;28;20108;-61
2022/01/03 03:24:46;;;;;;;79.93;44.30;;;231.20;1945.60;;;;;;5034342;28;20025;-61
2022/01/03 03:27:13;;;;;;;63.42;36.78;;;231.10;1945.60;;;;;;5034160;28;20501;-62
2022/01/03 03:29:50;;;;;;;61.45;36.30;;;231.10;1945.60;;;;;;5034348;28;20017;-62
2022/01/03 03:32:17;;;;;;;64.18;37.30;;;231.00;1971.20;;;;;;5033797;28;20040;-61
2022/01/03 03:34:44;;;;;;;50.38;30.45;;;231.00;1945.60;;;;;;5033896;28;20049;-61
2022/01/03 03:37:10;;;;;;;47.60;31.13;;;231.00;1945.60;;;;;;5033872;28;20032;-61
2022/01/03 03:39:36;;;;;;;46.25;28.25;;;231.10;1945.60;;;;;;5033924;28;20121;-61
2022/01/03 03:42:04;;;;;;;42.58;25.75;;;231.10;1945.60;;;;;;5033733;28;20029;-62
2022/01/03 03:44:30;;;;;;;39.42;24.25;;;231.20;1971.20;;;;;;5033985;28;20023;-62
2022/01/03 03:46:56;;;;;;;40.97;25.10;;;231.20;1945.60;;;;;;5034038;28;20060;-62
2022/01/03 03:49:22;;;;;;;52.83;31.13;;;231.10;1945.60;;;;;;5033660;28;20025;-62
2022/01/03 03:51:48;;;;;;;56.20;31.63;;;231.20;1971.20;;;;;;5033991;28;20067;-61
2022/01/03 03:54:13;;;;;;;50.17;31.40;;;231.10;1971.20;;;;;;5033683;28;20049;-62
2022/01/03 03:56:39;;;;;;;53.40;29.58;;;231.10;1971.20;;;;;;5033625;28;20030;-62
2022/01/03 03:59:05;;;;;;;46.33;27.73;;;231.10;1971.20;;;;;;5033752;28;20464;-62
2022/01/03 04:01:31;;;;;;;42.60;25.92;;;231.20;1945.60;;;;;;5033707;28;20467;-62
2022/01/03 04:03:56;;;;;;;39.63;26.23;;;231.20;1971.20;;;;;;5032281;28;20523;-62
2022/01/03 04:06:22;;;;;;;37.95;25.33;;;231.20;1971.20;;;;;;5033129;28;20030;-62
2022/01/03 04:08:48;;;;;;;37.38;24.10;;;231.10;1945.60;;;;;;5033387;28;20486;-62
2022/01/03 04:11:14;;;;;;;39.08;24.45;;;231.20;1971.20;;;;;;5033618;28;20049;-62
2022/01/03 04:13:40;;;;;;;40.40;24.08;;;231.30;1945.60;;;;;;5033151;28;20033;-62
2022/01/03 04:16:07;;;;;;;43.25;24.55;;;231.30;1945.60;;;;;;5033680;28;20025;-62
2022/01/03 04:18:33;;;;;;;36.13;25.02;;;231.20;1971.20;;;;;;5033097;28;20032;-62
2022/01/03 04:20:59;;;;;;;34.28;23.80;;;231.30;1971.20;;;;;;5033196;28;20025;-62
2022/01/03 04:23:25;;;;;;;38.33;24.50;;;256.00;1945.60;;;;;;5033519;28;20128;-62
2022/01/03 04:25:51;;;;;;;45.45;29.55;;;231.30;1945.60;;;;;;5033756;28;20025;-62
2022/01/03 04:28:18;;;;;;;48.35;28.25;;;231.30;1945.60;;;;;;5033388;28;20030;-63
2022/01/03 04:30:43;;;;;;;48.75;27.42;;;231.30;1945.60;;;;;;5033368;28;20041;-62
2022/01/03 04:33:10;;;;;;;40.78;27.27;;;231.30;1945.60;;;;;;5033081;28;20025;-61
2022/01/03 04:35:36;;;;;;;41.60;24.98;;;231.30;1945.60;;;;;;5033372;28;20021;-62
2022/01/03 04:38:02;;;;;;;37.40;23.58;;;231.20;1945.60;;;;;;5033394;28;20021;-62
2022/01/03 04:40:28;;;;;;;38.17;25.17;;;231.30;1945.60;;;;;;5033138;28;20045;-62
2022/01/03 04:42:54;;;;;;;37.97;24.42;;;231.20;1945.60;;;;;;5033237;28;20033;-62
2022/01/03 04:45:20;;;;;;;50.55;33.17;;;231.20;1945.60;;;;;;5033061;28;20072;-62
2022/01/03 04:47:46;;;;;;;46.42;31.48;;;231.20;1971.20;;;;;;5032785;28;20056;-61
2022/01/03 04:50:12;;;;;;;46.70;31.17;;;231.20;1971.20;;;;;;5031517;28;20029;-62
2022/01/03 04:52:37;;;;;;;46.67;29.98;;;231.20;1945.60;;;;;;5031796;28;20073;-62
2022/01/03 04:55:04;;;;;;;44.40;27.50;;;231.20;1945.60;;;;;;5032849;28;20022;-62
2022/01/03 04:57:29;;;;;;;43.03;27.02;;;231.20;1945.60;;;;;;5032720;28;20021;-62
2022/01/03 04:59:55;;;;;;;38.58;25.98;;;231.20;1945.60;;;;;;5033051;28;20033;-62
2022/01/03 05:02:21;;;;;;;36.40;25.05;;;231.30;1971.20;;;;;;5033086;28;20041;-62
2022/01/03 05:04:46;;;;;;;38.35;25.38;;;256.00;1945.60;;;;;;5033052;28;20486;-62
2022/01/03 05:07:12;;;;;;;37.35;24.55;;;231.30;1945.60;;;;;;5033170;28;20037;-62
2022/01/03 05:09:38;;;;;;;37.80;24.02;;;256.00;1945.60;;;;;;5033134;28;20045;-62
2022/01/03 05:12:04;;;;;;;37.28;23.02;;;256.00;1920.00;;;;;;5032577;28;20430;-63
2022/01/03 05:14:30;;;;;;;39.92;24.92;;;231.30;1920.00;;;;;;5033130;28;20053;-62
2022/01/03 05:16:57;;;;;;;34.92;23.48;;;256.00;1945.60;;;;;;5032948;28;20379;-61
2022/01/03 05:19:23;;;;;;;37.08;25.55;;;256.00;1920.00;;;;;;5036584;28;20044;-61
2022/01/03 05:21:50;;;;;;;37.40;24.50;;;256.00;1945.60;;;;;;5034981;28;20053;-61
2022/01/03 05:24:16;;;;;;;35.80;23.80;;;256.10;1945.60;;;;;;5036555;28;20026;-61
2022/01/03 05:26:42;;;;;;;36.10;24.20;;;256.10;1920.00;;;;;;5036912;28;20022;-61
2022/01/03 05:29:08;;;;;;;36.47;25.02;;;256.10;1920.00;;;;;;5036203;28;20101;-61
2022/01/03 05:31:34;;;;;;;39.50;26.33;;;256.00;1945.60;;;;;;5036253;28;20034;-61
2022/01/03 05:34:03;;;;;;;39.58;27.85;;;256.20;1920.00;;;;;;5034793;28;20028;-62
2022/01/03 05:36:29;;;;;;;40.00;27.48;;;256.10;1920.00;;;;;;5035981;28;20036;-62
2022/01/03 05:38:55;;;;;;;39.78;26.23;;;256.20;1920.00;;;;;;5036205;28;20017;-62
2022/01/03 05:41:21;;;;;;;35.72;25.52;;;256.20;1920.00;;;;;;5036023;28;20073;-61
2022/01/03 05:43:49;;;;;;;42.90;26.00;;;256.20;1920.00;;;;;;5036117;28;20037;-62
2022/01/03 05:46:15;;;;;;;38.83;26.42;;;256.30;1920.00;;;;;;5034707;28;20033;-61
2022/01/03 05:48:41;;;;;;;45.08;27.63;;;256.20;1894.40;;;;;;5035867;28;20598;-61
2022/01/03 05:51:06;;;;;;;44.97;26.48;;;256.30;1920.00;;;;;;5035686;28;20021;-64
2022/01/03 05:53:32;;;;;;;46.20;29.73;;;256.20;1920.00;;;;;;5035752;28;20022;-63
2022/01/03 05:55:59;;;;;;;53.85;32.65;;;256.30;1920.00;;;;;;5035822;28;20033;-61
2022/01/03 05:58:25;;;;;;;54.63;30.83;;;256.20;1920.00;;;;;;5035788;28;20104;-62
2022/01/03 06:00:51;;;;;;;51.70;30.70;;;256.30;1945.60;;;;;;5034436;28;20076;-61
2022/01/03 06:03:20;;;;;;;55.95;33.50;;;256.50;1945.60;;;;;;5035538;28;20463;-61
2022/01/03 06:06:31;;;;;;;64.07;40.42;;;256.50;1920.00;;;;;;5035681;28;20108;-62
2022/01/03 06:08:38;;;;;;;86.15;62.10;;;256.60;1920.00;;;;;;5035351;28;20040;-63
2022/01/03 06:11:04;;;;;;;74.95;52.80;;;256.40;1894.40;;;;;;5035821;28;20021;-63
2022/01/03 06:13:30;;;;;;;76.72;50.42;;;256.50;1920.00;;;;;;5035270;28;20116;-63
2022/01/03 06:15:57;;;;;;;107.82;77.72;;;256.60;1894.40;;;;;;5035542;28;20029;-63
2022/01/03 06:18:24;;;;;;;188.45;118.68;;;256.60;1894.40;;;;;;5033775;28;20083;-63
2022/01/03 06:20:51;;;;;;;174.98;111.05;;;256.50;1894.40;;;;;;5035324;28;20029;-64
2022/01/03 06:23:20;;;;;;;163.90;106.20;;;256.50;1894.40;;;;;;5035271;28;20037;-63
2022/01/03 06:25:47;;;;;;;129.70;84.55;;;256.60;1894.40;;;;;;5035076;28;20026;-62
2022/01/03 06:28:12;;;;;;;126.10;78.53;;;256.60;1868.80;;;;;;5034734;28;20113;-62
2022/01/03 06:30:41;;;;;;;139.90;91.30;;;256.60;1868.80;;;;;;5035232;28;20473;-62
2022/01/03 06:33:08;;;;;;;106.70;68.10;;;256.50;1894.40;;;;;;5033658;28;20029;-62
2022/01/03 06:35:35;;;;;;;93.82;62.15;;;256.50;1868.80;;;;;;5034893;28;20475;-62
2022/01/03 06:38:02;;;;;;;78.45;52.47;;;256.60;1868.80;;;;;;5035061;28;20045;-62
2022/01/03 06:40:28;;;;;;;68.93;44.75;;;256.60;1868.80;;;;;;5034872;28;20050;-63
2022/01/03 06:42:54;;;;;;;58.45;38.72;;;256.70;1868.80;;;;;;5034848;28;20044;-63
2022/01/03 06:45:20;;;;;;;52.28;35.20;;;256.70;1868.80;;;;;;5034733;28;20033;-62
2022/01/03 06:47:47;;;;;;;50.17;33.08;;;256.70;1868.80;;;;;;5034905;28;20029;-62
2022/01/03 06:50:13;;;;;;;46.58;31.40;;;256.80;1843.20;;;;;;5034744;28;20028;-62
2022/01/03 06:52:39;;;;;;;41.72;29.42;;;256.90;1843.20;;;;;;5034686;28;20446;-63
2022/01/03 06:55:05;;;;;;;43.22;29.73;;;256.90;1843.20;;;;;;5034728;28;20092;-62
2022/01/03 06:57:32;;;;;;;41.97;28.05;;;256.90;1843.20;;;;;;5034582;28;20029;-62
2022/01/03 06:59:58;;;;;;;50.85;30.77;;;256.80;1868.80;;;;;;5034565;28;20032;-62
2022/01/03 07:02:23;;;;;;;45.53;30.30;;;256.80;1868.80;;;;;;5034130;28;20025;-62
2022/01/03 07:04:49;;;;;;;44.80;29.88;;;256.80;1868.80;;;;;;5034696;28;20113;-62
2022/01/03 07:07:15;;;;;;;46.78;30.33;;;256.80;1868.80;;;;;;5034412;28;20031;-62
2022/01/03 07:09:41;;;;;;;52.10;31.77;;;256.70;1894.40;;;;;;5034387;28;20485;-62
2022/01/03 07:12:07;;;;;;;48.33;33.35;;;256.70;1868.80;;;;;;5034463;28;20047;-62
2022/01/03 07:19:53;;;;;;;52.05;36.88;;;256.70;1894.40;;;;;;5034021;28;20079;-62
2022/01/03 07:22:19;;;;;;;56.60;40.38;;;256.70;1894.40;;;;;;5034107;28;20140;-63
2022/01/03 07:24:46;;;;;;;62.97;43.85;;;256.60;1920.00;;;;;;5034208;28;20034;-63
2022/01/03 07:27:12;;;;;;;69.45;49.38;;;256.60;1920.00;;;;;;5032589;28;20087;-62
2022/01/03 07:29:39;;;;;;;93.05;68.20;;;256.60;1920.00;;;;;;5034243;28;20045;-62
2022/01/03 07:32:05;;;;;;;78.22;60.95;;;256.60;1920.00;;;;;;5034043;28;20037;-62
2022/01/03 07:34:31;;;;;;;77.60;56.92;;;256.60;1945.60;;;;;;5033906;28;20108;-63
2022/01/03 07:36:57;;;;;;;69.22;49.25;;;256.60;1945.60;;;;;;5034032;28;20159;-62
2022/01/03 07:39:23;;;;;;;70.47;47.15;;;256.70;1945.60;;;;;;5033705;28;20478;-62
2022/01/03 07:41:49;;;;;;;60.90;40.35;;;256.70;1945.60;;;;;;5033049;28;20103;-62
2022/01/03 07:44:15;;;;;;;55.45;36.78;;;256.80;1945.60;;;;;;5032456;28;20490;-62
2022/01/03 07:46:41;;;;;;;55.88;35.15;;;256.80;1920.00;;;;;;5032522;28;20025;-62
2022/01/03 07:49:06;;;;;;;50.60;34.53;;;256.90;1920.00;;;;;;5033794;28;20052;-62
2022/01/03 07:51:32;;;;;;;46.42;33.42;;;281.60;1945.60;;;;;;5032561;28;20037;-61
2022/01/03 07:53:58;;;;;;;47.38;31.88;;;281.60;1920.00;;;;;;5033865;28;20044;-62
2022/01/03 07:56:24;;;;;;;50.95;34.58;;;281.60;1920.00;;;;;;5033096;28;20025;-64
2022/01/03 07:58:50;;;;;;;53.65;32.83;;;281.60;1945.60;;;;;;5033842;28;20047;-62
2022/01/03 08:01:16;;;;;;;72.32;47.50;;;256.90;1894.40;;;;;;5033680;28;20519;-62
2022/01/03 08:03:41;;;;;;;57.03;37.00;;;256.90;1920.00;;;;;;5033384;28;20040;-60
2022/01/03 08:06:09;;;;;;;64.65;42.88;;;256.90;1920.00;;;;;;5033597;28;20032;-60
2022/01/03 08:08:36;;;;;;;53.33;37.58;;;256.80;1920.00;;;;;;5033413;28;20064;-60
2022/01/03 08:11:02;;;;;;;55.20;36.15;;;256.90;1920.00;;;;;;5032261;28;20034;-60
2022/01/03 08:13:28;;;;;;;62.53;40.78;;;256.90;1894.40;;;;;;5033372;28;20550;-60
2022/01/03 08:15:54;;;;;;;56.47;38.90;;;256.80;1920.00;;;;;;5032590;28;20108;-65
2022/01/03 08:18:20;;;;;;;59.63;38.50;;;256.90;1920.00;;;;;;5024325;28;20105;-62
2022/01/03 08:20:45;;;;;;;71.55;44.10;;;256.80;1920.00;;;;;;5033249;28;20498;-62
2022/01/03 08:23:11;;;;;;;69.50;44.55;;;256.90;1945.60;;;;;;5041235;28;20120;-62
2022/01/03 08:25:37;;;;;;;69.70;44.70;;;256.90;1920.00;;;;;;5041446;28;20025;-62
2022/01/03 08:28:07;;;;;;;63.35;42.63;;;256.90;1920.00;;;;;;5032946;28;20038;-65
2022/01/03 08:30:34;;;;;;;64.40;43.35;;;256.90;1920.00;;;;;;5031922;28;20383;-65
2022/01/03 08:33:01;;;;;;;60.13;42.20;;;256.90;1920.00;;;;;;5032913;28;20476;-65
2022/01/03 08:35:27;;;;;;;61.90;44.10;;;281.60;2022.40;;;;;;5032842;28;20022;-66
2022/01/03 08:37:53;;;;;;;62.55;46.38;;;256.90;1945.60;;;;;;5032943;28;20100;-62
2022/01/03 08:40:19;;;;;;;61.63;43.22;;;256.90;1945.60;;;;;;5031345;28;20122;-62
2022/01/03 08:42:46;;;;;;;60.05;40.00;;;281.60;1971.20;;;;;;5032552;28;20084;-62
2022/01/03 08:45:11;;;;;;;59.33;38.05;;;256.90;1945.60;;;;;;5033306;28;20029;-65
2022/01/03 08:47:37;;;;;;;56.95;37.35;;;281.60;2099.20;;;;;;5032840;28;20494;-62
2022/01/03 08:50:04;;;;;;;51.90;36.72;;;281.90;2099.20;;;;;;5033006;28;20030;-61
2022/01/03 08:52:31;;;;;;;49.63;33.25;;;281.90;2022.40;;;;;;5035506;28;20045;-61
2022/01/03 08:54:58;;;;;;;49.47;34.35;;;282.00;1996.80;;;;;;5036680;28;20034;-62
2022/01/03 08:57:24;;;;;;;50.38;33.88;;;282.10;1971.20;;;;;;5036832;28;20032;-63
2022/01/03 08:59:51;;;;;;;50.75;32.28;;;282.10;1996.80;;;;;;5035754;28;20025;-61
2022/01/03 09:02:17;;;;;;;47.63;31.58;;;282.10;2022.40;;;;;;5036294;28;20112;-63
2022/01/03 09:04:44;;;;;;;54.22;35.25;;;282.20;2022.40;;;;;;5036627;28;20021;-64
2022/01/03 09:07:11;;;;;;;115.97;60.40;;;282.30;1971.20;;;;;;5036603;28;20018;-62
2022/01/03 09:09:37;;;;;;;76.50;48.88;;;282.40;2124.80;;;;;;5036421;28;20509;-63
2022/01/03 09:12:04;;;;;;;70.40;44.50;;;307.40;2176.00;;;;;;5045638;28;20100;-68
2022/01/03 09:14:30;;;;;;;73.03;45.97;;;307.80;2099.20;;;;;;5044275;28;20407;-67
2022/01/03 09:16:55;;;;;;;72.18;48.78;;;308.00;2099.20;;;;;;5038218;28;20021;-61
2022/01/03 09:19:22;;;;;;;51.22;37.22;;;332.90;2048.00;;;;;;5036013;28;20490;-64
2022/01/03 09:21:48;;;;;;;62.13;45.17;;;333.00;1920.00;;;;;;5036168;28;20426;-63
2022/01/03 09:29:30;;;;;;;94.82;68.70;;;308.10;1894.40;;;;;;5036459;28;20367;-65
2022/01/03 09:31:56;;;;;;;72.68;51.17;;;308.00;1894.40;;;;;;5036180;28;20103;-64
2022/01/03 09:34:22;;;;;;;59.53;43.42;;;307.90;1894.40;;;;;;5034602;28;20065;-70
2022/01/03 09:36:47;;;;;;;79.00;62.83;;;307.90;1920.00;;;;;;5034669;28;20427;-64
2022/01/03 09:39:13;;;;;;;103.57;73.15;;;307.90;1920.00;;;;;;5035142;28;20475;-65
2022/01/03 09:41:48;;;;;;;66.55;45.60;;;307.90;1920.00;;;;;;5036034;28;20079;-65
2022/01/03 09:44:15;;;;;;;47.72;34.05;;;307.90;1920.00;;;;;;5035829;28;20125;-64
2022/01/03 09:46:42;;;;;;;50.88;34.08;;;308.00;1920.00;;;;;;5045127;28;20025;-63
2022/01/03 09:49:13;;;;;;;63.40;38.90;;;308.00;1894.40;;;;;;5045404;28;20024;-63
2022/01/03 09:51:40;;;;;;;138.68;66.13;;;308.00;1894.40;;;;;;5044246;28;20021;-64
2022/01/03 09:54:08;;;;;;;151.38;76.38;;;308.10;1945.60;;;;;;5045226;28;20115;-63
2022/01/03 09:56:36;;;;;;;180.45;90.75;;;308.10;1920.00;;;;;;5055783;28;20024;-63
2022/01/03 09:59:03;;;;;;;212.60;106.82;;;332.80;1945.60;;;;;;5055658;28;20466;-64
2022/01/03 10:01:30;;;;;;;180.75;93.78;;;332.80;1945.60;;;;;;5055173;28;20029;-64
2022/01/03 10:03:56;;;;;;;97.32;56.15;;;332.80;1945.60;;;;;;5054729;28;20041;-64
2022/01/03 10:06:24;;;;;;;81.45;45.45;;;332.80;1971.20;;;;;;5055496;28;20029;-65
2022/01/03 10:08:50;;;;;;;55.95;32.03;;;332.80;1920.00;;;;;;5055389;28;20094;-66
2022/01/03 10:11:18;;;;;;;41.55;25.58;;;332.80;1920.00;;;;;;5055879;28;20049;-65
2022/01/03 10:13:44;;;;;;;75.85;42.15;;;332.90;1894.40;;;;;;5054173;28;20469;-62
2022/01/03 10:16:10;;;;;;;168.65;91.82;;;332.90;1894.40;;;;;;5055404;28;20036;-65
2022/01/03 10:18:35;;;;;;;188.75;99.78;;;332.80;1894.40;;;;;;5055323;28;21015;-66
2022/01/03 10:21:03;;;;;;;236.75;120.80;;;332.90;1894.40;;;;;;5055042;28;20025;-65
2022/01/03 10:23:29;;;;;;;241.15;124.38;;;332.90;1868.80;;;;;;5055319;28;20111;-66
2022/01/03 10:26:16;;;;;;;211.38;111.00;;;332.90;1894.40;;;;;;5055323;28;20045;-65
2022/01/03 10:28:42;;;;;;;157.95;87.45;;;332.90;1894.40;;;;;;5055187;28;20481;-66
2022/01/03 10:31:19;;;;;;;144.90;83.35;;;332.80;1894.40;;;;;;5055252;28;20104;-65
2022/01/03 10:33:45;;;;;;;64.93;42.13;;;332.80;1894.40;;;;;;5055004;28;20033;-64
2022/01/03 10:36:35;;;;;;;61.65;39.88;;;332.80;1894.40;;;;;;5054794;28;20112;-63
2022/01/03 10:39:11;;;;;;;43.53;30.10;;;332.80;1894.40;;;;;;5054731;28;20029;-70
2022/01/03 10:41:37;;;;;;;44.38;21.35;;;332.90;1920.00;;;;;;5054875;28;20079;-62
2022/01/03 10:44:03;;;;;;;35.92;22.75;;;332.90;1920.00;;;;;;5054368;28;20033;-60
2022/01/03 10:46:34;;;;;;;41.28;22.70;;;333.00;1971.20;;;;;;5054849;28;20028;-63
2022/01/03 10:49:10;;;;;;;50.35;25.08;;;333.10;1894.40;;;;;;5054756;28;20412;-65
2022/01/03 10:51:36;;;;;;;39.60;24.50;;;333.50;2099.20;;;;;;5054534;28;20467;-61
2022/01/03 10:54:06;;;;;;;37.67;24.38;;;333.60;1920.00;;;;;;5054532;28;20025;-62
2022/01/03 10:56:33;;;;;;;50.85;31.90;;;333.60;1868.80;;;;;;5053889;28;20021;-61
2022/01/03 10:59:30;;;;;;;67.65;37.08;;;333.50;1868.80;;;;;;5054375;28;20086;-63
2022/01/03 11:02:01;;;;;;;64.63;33.35;;;333.50;1843.20;;;;;;5054398;28;20025;-63
2022/01/03 11:04:52;;;;;;;54.05;31.63;;;333.50;1843.20;;;;;;5054116;28;20091;-65
2022/01/03 11:13:04;;;;;;;51.17;32.97;;;333.60;1792.00;;;;;;5054384;28;20122;-61
2022/01/03 11:15:29;;;;;;;48.67;32.83;;;333.70;1792.00;;;;;;5054332;28;20017;-62
2022/01/03 11:18:28;;;;;;;40.45;25.77;;;333.70;1792.00;;;;;;5054157;28;20462;-62
2022/01/03 11:21:00;;;;;;;41.53;29.05;;;358.40;1817.60;;;;;;5032155;28;20030;-61
2022/01/03 11:23:26;;;;;;;27.65;18.10;;;358.40;1843.20;;;;;;5032064;28;20083;-63
2022/01/03 11:25:53;;;;;;;25.60;16.63;;;358.40;1843.20;;;;;;5048679;28;20030;-62
2022/01/03 11:28:26;;;;;;;33.35;19.60;;;358.50;1817.60;;;;;;5032025;28;20025;-61
2022/01/03 11:30:53;;;;;;;47.92;24.95;;;358.60;1792.00;;;;;;5030057;28;20033;-63
2022/01/03 11:33:20;;;;;;;27.65;16.88;;;358.60;1766.40;;;;;;5021065;28;20108;-61
2022/01/03 11:35:48;;;;;;;31.10;16.20;;;358.60;1740.80;;;;;;5019526;28;20014;-66
2022/01/03 11:38:21;;;;;;;60.35;19.27;;;358.60;1740.80;;;;;;5017327;28;20061;-61
2022/01/03 11:40:47;;;;;;;45.92;23.25;;;358.60;1766.40;;;;;;5018548;28;20053;-63
2022/01/03 11:43:14;;;;;;;107.97;43.08;;;358.60;1766.40;;;;;;5002662;28;20116;-60
2022/01/03 11:45:41;;;;;;;643.92;81.30;;;358.60;1817.60;;;;;;5018000;28;20030;-61
2022/01/03 11:48:09;;;;;;;214.38;46.20;;;358.60;1817.60;;;;;;5011907;28;20046;-61
2022/01/03 11:50:37;;;;;;;66.40;30.85;;;358.60;1817.60;;;;;;4994982;28;20431;-61
2022/01/03 11:53:05;;;;;;;48.85;26.55;;;358.60;1792.00;;;;;;4999242;28;20041;-61
2022/01/03 11:55:31;;;;;;;34.97;19.25;;;358.60;1792.00;;;;;;5033982;28;20494;-61
2022/01/03 12:03:50;;;;;;;27.42;16.10;;;358.70;1817.60;;;;;;5011874;28;20049;-62
2022/01/03 12:07:07;;;;;;;27.27;14.95;;;358.80;1817.60;;;;;;5071070;28;20387;-65
2022/01/03 12:09:35;;;;;;;21.75;14.60;;;358.90;1817.60;;;;;;5071236;28;20366;-62
2022/01/03 12:12:01;;;;;;;22.13;15.07;;;358.90;1843.20;;;;;;5071172;28;20087;-62
2022/01/03 12:14:46;;;;;;;26.25;17.40;;;358.80;1843.20;;;;;;5071117;28;20052;-65
2022/01/03 12:17:14;;;;;;;32.13;18.27;;;358.80;1843.20;;;;;;5070839;28;20494;-62
2022/01/03 12:19:46;;;;;;;33.28;22.80;;;358.80;1868.80;;;;;;5070761;28;20029;-62
2022/01/03 12:22:22;;;;;;;28.75;20.55;;;358.80;1868.80;;;;;;5071021;28;20033;-62
2022/01/03 12:25:03;;;;;;;23.70;16.15;;;358.80;1868.80;;;;;;5070486;28;20013;-62
2022/01/03 12:27:39;;;;;;;19.13;14.15;;;358.80;1868.80;;;;;;5070725;28;20386;-62
2022/01/03 12:30:10;;;;;;;20.65;14.95;;;358.80;1868.80;;;;;;5070708;28;20021;-63